Time;durP1;ratioP1;P1;durP2;ratioP2;P2;SDS_P1;SDS_P2;PMS_P1;PMS_P2;Temp;Humidity;BMP_temperature;BMP_pressure;BME280_temperature;BME280_humidity;BME280_pressure;Samples;Min_cycle;Max_cycle;Signal;HPM_P1;HPM_P2
2023/01/03 00:01:15;;;;;;;6.90;2.60;;;;;;;;;;5061037;28;20052;-77
2023/01/03 00:03:43;;;;;;;7.15;2.63;;;;;;;;;;5061087;28;20563;-78
2023/01/03 00:06:17;;;;;;;6.43;2.55;;;;;;;;;;5060678;28;20121;-77
2023/01/03 00:08:44;;;;;;;5.22;2.53;;;;;;;;;;5062627;28;20040;-78
2023/01/03 00:11:12;;;;;;;8.75;3.10;;;;;;;;;;5066400;28;20049;-77
2023/01/03 00:13:38;;;;;;;6.53;2.70;;;;;;;;;;5072764;28;20045;-77
2023/01/03 00:16:05;;;;;;;6.85;3.13;;;;;;;;;;5073377;28;20045;-78
2023/01/03 00:18:32;;;;;;;8.63;3.05;;;;;;;;;;5068806;28;20076;-77
2023/01/03 00:21:03;;;;;;;7.07;2.58;;;;;;;;;;5072788;28;20049;-78
2023/01/03 00:23:31;;;;;;;7.43;3.22;;;;;;;;;;5074572;28;20029;-78
2023/01/03 00:25:58;;;;;;;6.88;2.78;;;;;;;;;;5067943;28;20080;-80
2023/01/03 00:28:24;;;;;;;7.30;2.90;;;;;;;;;;5062273;28;20118;-77
2023/01/03 00:30:51;;;;;;;8.20;3.17;;;;;;;;;;5062421;28;20037;-78
2023/01/03 00:33:17;;;;;;;7.60;3.13;;;;;;;;;;5065840;28;20045;-77
2023/01/03 00:35:44;;;;;;;7.78;3.20;;;;;;;;;;5059934;28;20132;-79
2023/01/03 00:38:11;;;;;;;8.63;3.65;;;;;;;;;;5060190;28;20132;-77
2023/01/03 00:40:39;;;;;;;7.65;3.35;;;;;;;;;;5059227;28;20139;-78
2023/01/03 00:45:49;;;;;;;10.23;3.22;;;;;;;;;;5057869;28;20099;-77
2023/01/03 00:48:16;;;;;;;7.57;3.15;;;;;;;;;;5058291;28;20055;-77
2023/01/03 00:50:43;;;;;;;7.13;2.92;;;;;;;;;;5058461;28;20486;-77
2023/01/03 00:53:13;;;;;;;6.30;2.78;;;;;;;;;;5058333;28;20045;-77
2023/01/03 00:55:41;;;;;;;9.07;3.17;;;;;;;;;;5058576;28;20049;-77
2023/01/03 00:58:07;;;;;;;9.93;3.10;;;;;;;;;;5056630;28;20056;-77
2023/01/03 01:00:34;;;;;;;7.35;3.30;;;;;;;;;;5057616;28;20045;-77
2023/01/03 01:03:01;;;;;;;5.90;2.97;;;;;;;;;;5057842;28;20083;-77
2023/01/03 01:05:29;;;;;;;7.63;3.22;;;;;;;;;;5058623;28;20205;-77
2023/01/03 01:07:55;;;;;;;8.43;3.05;;;;;;;;;;5058563;28;20144;-77
2023/01/03 01:10:22;;;;;;;5.90;2.70;;;;;;;;;;5058096;28;20053;-77
2023/01/03 01:12:54;;;;;;;5.95;3.05;;;;;;;;;;5058871;28;20067;-77
2023/01/03 01:15:21;;;;;;;6.90;2.22;;;;;;;;;;5058852;28;20040;-77
2023/01/03 01:17:47;;;;;;;6.35;2.40;;;;;;;;;;5058140;28;20071;-77
2023/01/03 01:20:16;;;;;;;4.82;2.22;;;;;;;;;;5057929;28;20064;-77
2023/01/03 01:22:43;;;;;;;6.80;2.60;;;;;;;;;;5062173;28;20061;-78
2023/01/03 01:25:09;;;;;;;5.80;2.50;;;;;;;;;;5066333;28;20064;-77
2023/01/03 01:27:36;;;;;;;6.88;2.70;;;;;;;;;;5064901;28;20091;-77
2023/01/03 01:30:04;;;;;;;6.95;2.22;;;;;;;;;;5063371;28;20118;-78
2023/01/03 01:32:31;;;;;;;4.90;1.92;;;;;;;;;;5050052;28;20069;-77
2023/01/03 01:34:58;;;;;;;5.43;2.00;;;;;;;;;;5065422;28;20059;-78
2023/01/03 01:37:24;;;;;;;4.38;1.98;;;;;;;;;;5062597;28;20135;-78
2023/01/03 01:39:51;;;;;;;5.25;2.08;;;;;;;;;;5060954;28;20049;-78
2023/01/03 01:45:04;;;;;;;5.07;1.85;;;;;;;;;;5058706;28;20099;-77
2023/01/03 01:47:36;;;;;;;3.90;1.83;;;;;;;;;;5038713;28;20519;-78
2023/01/03 01:50:14;;;;;;;4.82;1.75;;;;;;;;;;5056512;28;20131;-78
2023/01/03 01:52:46;;;;;;;4.47;2.05;;;;;;;;;;5043863;28;20098;-78
2023/01/03 01:55:16;;;;;;;3.80;1.88;;;;;;;;;;5051559;28;20049;-77
2023/01/03 01:57:43;;;;;;;5.20;2.30;;;;;;;;;;5038971;28;20088;-77
2023/01/03 02:00:13;;;;;;;6.38;2.00;;;;;;;;;;5038546;28;20561;-77
2023/01/03 02:02:40;;;;;;;5.38;1.70;;;;;;;;;;5059482;28;20124;-78
2023/01/03 02:05:09;;;;;;;3.30;2.08;;;;;;;;;;5060138;28;20076;-77
2023/01/03 02:07:37;;;;;;;3.60;1.10;;;;;;;;;;5058908;28;20132;-77
2023/01/03 02:10:04;;;;;;;4.00;1.30;;;;;;;;;;5060381;28;20056;-78
2023/01/03 02:15:41;;;;;;;2.72;1.20;;;;;;;;;;5059193;28;20072;-78
2023/01/03 02:18:24;;;;;;;2.13;0.80;;;;;;;;;;5060037;28;20503;-78
2023/01/03 02:21:20;;;;;;;1.80;0.90;;;;;;;;;;5058972;28;20127;-78
2023/01/03 02:24:25;;;;;;;3.40;1.10;;;;;;;;;;5057967;28;20135;-77
2023/01/03 02:27:01;;;;;;;2.38;1.10;;;;;;;;;;4982440;28;20481;-77
2023/01/03 02:30:05;;;;;;;2.25;0.93;;;;;;;;;;5050714;28;20131;-76
2023/01/03 02:32:39;;;;;;;2.58;1.02;;;;;;;;;;5057485;28;20049;-77
2023/01/03 02:35:14;;;;;;;1.90;0.90;;;;;;;;;;5057285;28;20506;-77
2023/01/03 02:37:48;;;;;;;2.22;1.10;;;;;;;;;;5054858;28;20511;-76
2023/01/03 02:40:23;;;;;;;2.50;1.00;;;;;;;;;;5045523;28;20059;-78
2023/01/03 02:43:01;;;;;;;2.85;1.48;;;;;;;;;;5058450;28;20132;-78
2023/01/03 02:45:47;;;;;;;1.98;1.13;;;;;;;;;;5057546;28;20051;-78
2023/01/03 02:48:20;;;;;;;1.88;1.00;;;;;;;;;;5057077;28;20045;-78
2023/01/03 02:50:48;;;;;;;2.33;0.90;;;;;;;;;;5057929;28;20077;-79
2023/01/03 02:53:19;;;;;;;1.92;0.90;;;;;;;;;;5055230;28;20129;-77
2023/01/03 02:55:49;;;;;;;3.05;0.82;;;;;;;;;;5054537;28;20465;-77
2023/01/03 02:58:19;;;;;;;1.67;0.98;;;;;;;;;;5055600;28;20051;-78
2023/01/03 03:00:50;;;;;;;1.45;0.70;;;;;;;;;;5060822;28;20108;-77
2023/01/03 03:03:22;;;;;;;1.52;1.02;;;;;;;;;;5075398;28;20480;-77
2023/01/03 03:05:54;;;;;;;1.20;0.80;;;;;;;;;;5075241;28;20041;-78
2023/01/03 03:08:20;;;;;;;1.30;0.70;;;;;;;;;;5074252;28;20079;-77
2023/01/03 03:13:37;;;;;;;1.90;0.70;;;;;;;;;;5073905;28;20091;-78
2023/01/03 03:16:07;;;;;;;1.48;0.90;;;;;;;;;;5074579;28;20041;-78
2023/01/03 03:18:43;;;;;;;2.80;1.00;;;;;;;;;;5074417;28;20052;-78
2023/01/03 03:26:44;;;;;;;3.47;1.70;;;;;;;;;;5056024;28;20100;-78
2023/01/03 03:29:15;;;;;;;2.75;0.90;;;;;;;;;;5055831;28;20072;-78
2023/01/03 03:31:45;;;;;;;2.38;1.08;;;;;;;;;;5056123;28;20045;-78
2023/01/03 03:34:17;;;;;;;1.73;1.00;;;;;;;;;;5056066;28;20065;-78
2023/01/03 03:36:50;;;;;;;1.83;0.88;;;;;;;;;;5056039;28;20106;-78
2023/01/03 03:45:02;;;;;;;1.98;0.88;;;;;;;;;;5061366;28;20060;-78
2023/01/03 03:47:38;;;;;;;2.67;0.90;;;;;;;;;;5070380;28;20049;-77
2023/01/03 03:50:13;;;;;;;1.80;1.00;;;;;;;;;;5062680;28;20052;-77
2023/01/03 03:52:44;;;;;;;1.67;0.95;;;;;;;;;;5064756;28;20045;-77
2023/01/03 03:55:15;;;;;;;2.22;1.13;;;;;;;;;;5058494;28;20088;-77
2023/01/03 03:57:46;;;;;;;3.42;1.58;;;;;;;;;;5055242;28;20235;-77
2023/01/03 04:00:16;;;;;;;2.78;1.10;;;;;;;;;;5055576;28;20049;-77
2023/01/03 04:02:46;;;;;;;3.50;1.10;;;;;;;;;;5054841;28;20049;-77
2023/01/03 04:05:17;;;;;;;1.92;1.17;;;;;;;;;;5054949;28;20080;-77
2023/01/03 04:07:44;;;;;;;2.35;1.10;;;;;;;;;;5054008;28;20045;-77
2023/01/03 04:10:12;;;;;;;3.97;1.27;;;;;;;;;;5053491;28;20504;-77
2023/01/03 04:12:38;;;;;;;2.70;1.00;;;;;;;;;;5054564;28;20113;-77
2023/01/03 04:15:06;;;;;;;2.35;1.33;;;;;;;;;;5056002;28;20081;-78
2023/01/03 04:17:33;;;;;;;3.30;1.23;;;;;;;;;;5055550;28;20091;-77
2023/01/03 04:20:00;;;;;;;3.25;1.30;;;;;;;;;;5054907;28;20083;-77
2023/01/03 04:22:28;;;;;;;3.20;1.13;;;;;;;;;;5054589;28;20045;-78
2023/01/03 04:24:54;;;;;;;3.28;1.20;;;;;;;;;;5065015;28;20108;-78
2023/01/03 04:27:21;;;;;;;2.35;1.10;;;;;;;;;;5075484;28;20029;-78
2023/01/03 04:29:48;;;;;;;3.13;1.52;;;;;;;;;;5074880;28;20057;-78
2023/01/03 04:32:14;;;;;;;3.28;1.30;;;;;;;;;;5075663;28;20033;-77
2023/01/03 04:34:41;;;;;;;3.58;1.50;;;;;;;;;;5075221;28;20104;-77
2023/01/03 04:37:08;;;;;;;2.10;1.13;;;;;;;;;;5075435;28;20036;-78
2023/01/03 04:39:35;;;;;;;4.63;2.75;;;;;;;;;;5075067;28;20044;-77
2023/01/03 04:44:00;;;;;;;3.75;1.38;;;;;;;;;;5075434;28;20148;-78
2023/01/03 04:44:48;;;;;;;3.70;1.50;;;;;;;;;;5061827;28;20068;-77
2023/01/03 04:47:14;;;;;;;2.80;1.50;;;;;;;;;;5064995;28;20045;-77
2023/01/03 04:49:44;;;;;;;4.55;1.20;;;;;;;;;;5061726;28;20073;-77
2023/01/03 04:52:10;;;;;;;3.25;1.63;;;;;;;;;;5060685;28;20057;-77
2023/01/03 04:54:39;;;;;;;3.35;1.48;;;;;;;;;;5057623;28;20132;-77
2023/01/03 04:57:06;;;;;;;3.08;1.08;;;;;;;;;;5055454;28;20128;-77
2023/01/03 04:59:33;;;;;;;3.00;1.63;;;;;;;;;;5055657;28;20128;-77
2023/01/03 05:02:00;;;;;;;3.03;1.30;;;;;;;;;;5055415;28;20129;-76
2023/01/03 05:04:27;;;;;;;4.72;1.60;;;;;;;;;;5055645;28;20041;-76
2023/01/03 05:06:54;;;;;;;3.80;1.60;;;;;;;;;;5055073;28;20051;-78
2023/01/03 05:09:21;;;;;;;4.40;1.60;;;;;;;;;;5056181;28;20474;-76
2023/01/03 05:11:49;;;;;;;3.70;1.70;;;;;;;;;;5056669;28;20045;-77
2023/01/03 05:14:16;;;;;;;3.50;1.55;;;;;;;;;;5055096;28;20045;-77
2023/01/03 05:16:43;;;;;;;3.05;1.30;;;;;;;;;;5055463;28;20079;-77
2023/01/03 05:19:09;;;;;;;2.60;1.20;;;;;;;;;;5055498;28;20049;-78
2023/01/03 05:27:06;;;;;;;3.13;1.27;;;;;;;;;;5056371;28;20052;-77
2023/01/03 05:29:35;;;;;;;2.70;1.50;;;;;;;;;;5056936;28;20044;-78
2023/01/03 05:32:01;;;;;;;4.80;2.47;;;;;;;;;;5057359;28;21585;-77
2023/01/03 05:34:28;;;;;;;3.78;1.45;;;;;;;;;;5056758;28;20045;-79
2023/01/03 05:36:55;;;;;;;4.65;1.70;;;;;;;;;;5056689;28;20132;-78
2023/01/03 05:39:21;;;;;;;5.60;2.63;;;;;;;;;;5057086;28;20049;-78
2023/01/03 05:42:00;;;;;;;7.18;3.20;;;;;;;;;;5058097;28;20136;-78
2023/01/03 05:44:29;;;;;;;7.28;4.20;;;;;;;;;;5057794;28;20571;-78
2023/01/03 05:46:55;;;;;;;8.15;3.72;;;;;;;;;;5057328;28;20049;-79
2023/01/03 05:49:22;;;;;;;6.07;2.90;;;;;;;;;;5057114;28;20045;-78
2023/01/03 05:51:48;;;;;;;3.92;1.63;;;;;;;;;;5058270;28;20136;-79
2023/01/03 05:54:17;;;;;;;4.43;1.80;;;;;;;;;;5056310;28;20124;-78
2023/01/03 05:56:44;;;;;;;4.40;2.20;;;;;;;;;;5057860;28;20084;-78
2023/01/03 05:59:11;;;;;;;5.10;2.40;;;;;;;;;;5058375;28;20055;-79
2023/01/03 06:01:39;;;;;;;5.05;1.80;;;;;;;;;;5057079;28;20108;-80
2023/01/03 06:04:06;;;;;;;5.55;2.20;;;;;;;;;;5056587;28;20120;-77
2023/01/03 06:06:33;;;;;;;3.45;1.63;;;;;;;;;;5056041;28;20047;-79
2023/01/03 06:09:00;;;;;;;4.68;1.70;;;;;;;;;;5057697;28;20108;-77
2023/01/03 06:11:26;;;;;;;3.60;1.83;;;;;;;;;;5057722;28;20051;-79
2023/01/03 06:13:53;;;;;;;4.50;1.98;;;;;;;;;;5056865;28;20133;-78
2023/01/03 06:19:07;;;;;;;5.55;1.98;;;;;;;;;;5056868;28;20118;-78
2023/01/03 06:21:34;;;;;;;4.65;2.00;;;;;;;;;;5056531;28;20417;-78
2023/01/03 06:24:00;;;;;;;4.03;2.10;;;;;;;;;;5056847;28;20108;-77
2023/01/03 06:26:28;;;;;;;4.50;2.15;;;;;;;;;;5056491;28;20109;-77
2023/01/03 06:28:54;;;;;;;4.13;2.00;;;;;;;;;;5056401;28;20061;-78
2023/01/03 06:31:21;;;;;;;4.55;1.80;;;;;;;;;;5055958;28;20128;-77
2023/01/03 06:33:48;;;;;;;4.07;1.80;;;;;;;;;;5055715;28;20049;-78
2023/01/03 06:36:19;;;;;;;4.40;2.17;;;;;;;;;;5054958;28;20104;-78
2023/01/03 06:38:45;;;;;;;3.60;1.90;;;;;;;;;;5055714;28;20114;-78
2023/01/03 06:41:13;;;;;;;4.82;2.20;;;;;;;;;;5055680;28;20049;-78
2023/01/03 06:43:40;;;;;;;4.90;2.33;;;;;;;;;;5055255;28;20049;-78
2023/01/03 06:54:23;;;;;;;4.70;2.15;;;;;;;;;;5055455;28;20055;-79
2023/01/03 06:56:50;;;;;;;4.88;2.10;;;;;;;;;;5056806;28;20181;-78
2023/01/03 06:59:16;;;;;;;4.75;1.88;;;;;;;;;;5055144;28;20492;-78
2023/01/03 07:01:44;;;;;;;4.03;2.00;;;;;;;;;;5055898;28;20123;-78
2023/01/03 07:04:10;;;;;;;5.13;2.20;;;;;;;;;;5055554;28;20049;-78
2023/01/03 07:06:39;;;;;;;3.97;2.30;;;;;;;;;;5054817;28;20591;-78
2023/01/03 07:09:05;;;;;;;4.68;2.05;;;;;;;;;;5055230;28;20204;-78
2023/01/03 07:11:33;;;;;;;4.72;2.55;;;;;;;;;;5055258;28;20104;-79
2023/01/03 07:13:59;;;;;;;3.63;2.00;;;;;;;;;;5055711;28;20136;-79
2023/01/03 07:16:27;;;;;;;5.22;2.15;;;;;;;;;;5056378;28;20049;-77
2023/01/03 07:18:54;;;;;;;3.85;1.98;;;;;;;;;;5063026;28;20114;-77
2023/01/03 07:21:21;;;;;;;3.55;2.08;;;;;;;;;;5063518;28;20075;-77
2023/01/03 07:23:49;;;;;;;4.55;2.30;;;;;;;;;;5064361;28;20041;-77
2023/01/03 07:26:16;;;;;;;4.43;2.30;;;;;;;;;;5060901;28;20041;-76
2023/01/03 07:28:42;;;;;;;4.85;2.13;;;;;;;;;;5057548;28;20049;-77
2023/01/03 07:31:09;;;;;;;5.28;1.95;;;;;;;;;;5063192;28;20057;-78
2023/01/03 07:33:37;;;;;;;4.82;2.05;;;;;;;;;;5062209;28;20047;-77
2023/01/03 07:36:06;;;;;;;3.75;1.90;;;;;;;;;;5060811;28;20049;-77
2023/01/03 07:38:33;;;;;;;4.30;2.13;;;;;;;;;;5055782;28;20049;-77
2023/01/03 07:41:03;;;;;;;4.10;2.03;;;;;;;;;;5055943;28;20104;-78
2023/01/03 07:43:38;;;;;;;5.40;2.50;;;;;;;;;;5054057;28;20127;-77
2023/01/03 07:46:06;;;;;;;4.35;2.53;;;;;;;;;;5051964;28;20045;-79
2023/01/03 07:48:33;;;;;;;5.30;2.33;;;;;;;;;;5051420;28;20408;-77
2023/01/03 07:51:00;;;;;;;4.00;2.33;;;;;;;;;;5050901;28;20045;-78
2023/01/03 07:53:27;;;;;;;5.40;2.50;;;;;;;;;;5052088;28;20048;-78
2023/01/03 07:55:54;;;;;;;5.93;2.38;;;;;;;;;;5053422;28;20073;-77
2023/01/03 07:58:22;;;;;;;4.22;2.28;;;;;;;;;;5053193;28;20128;-78
2023/01/03 08:00:49;;;;;;;5.15;2.90;;;;;;;;;;5053419;28;20136;-79
2023/01/03 08:03:15;;;;;;;5.05;2.58;;;;;;;;;;5053698;28;20047;-78
2023/01/03 08:05:42;;;;;;;5.50;2.58;;;;;;;;;;5052876;28;20049;-79
2023/01/03 08:08:09;;;;;;;5.97;2.83;;;;;;;;;;5044218;28;20064;-78
2023/01/03 08:13:23;;;;;;;4.93;2.40;;;;;;;;;;5046275;28;20179;-79
2023/01/03 08:15:52;;;;;;;4.97;2.70;;;;;;;;;;5051426;28;20099;-79
2023/01/03 08:18:21;;;;;;;7.22;2.60;;;;;;;;;;5052541;28;20129;-79
2023/01/03 08:20:48;;;;;;;4.28;2.50;;;;;;;;;;5055528;28;20048;-79
2023/01/03 08:23:15;;;;;;;6.60;3.00;;;;;;;;;;5056738;28;20067;-78
2023/01/03 08:25:42;;;;;;;5.60;2.70;;;;;;;;;;5060216;28;20499;-79
2023/01/03 08:28:10;;;;;;;5.45;2.72;;;;;;;;;;5060221;28;20055;-78
2023/01/03 08:30:41;;;;;;;4.53;2.63;;;;;;;;;;5057707;28;20152;-79
2023/01/03 08:33:11;;;;;;;4.43;2.40;;;;;;;;;;5054933;28;20049;-79
2023/01/03 08:35:40;;;;;;;5.18;2.58;;;;;;;;;;5054963;28;20060;-79
2023/01/03 08:38:11;;;;;;;6.55;3.03;;;;;;;;;;5056037;28;20041;-79
2023/01/03 08:40:40;;;;;;;4.95;2.70;;;;;;;;;;5054577;28;20080;-79
2023/01/03 08:43:07;;;;;;;5.97;2.65;;;;;;;;;;5054871;28;20535;-79
2023/01/03 08:45:34;;;;;;;4.97;2.60;;;;;;;;;;5055594;28;20546;-79
2023/01/03 08:48:03;;;;;;;6.63;3.25;;;;;;;;;;5055839;28;20040;-78
2023/01/03 08:50:30;;;;;;;4.85;2.60;;;;;;;;;;5055480;28;20127;-79
2023/01/03 08:52:57;;;;;;;6.82;2.83;;;;;;;;;;5053468;28;20488;-77
2023/01/03 08:55:23;;;;;;;4.85;2.80;;;;;;;;;;5053978;28;20053;-78
2023/01/03 08:57:50;;;;;;;5.25;2.70;;;;;;;;;;5054997;28;20069;-78
2023/01/03 09:00:17;;;;;;;5.25;2.72;;;;;;;;;;5049412;28;20120;-78
2023/01/03 09:02:44;;;;;;;5.68;2.90;;;;;;;;;;5051525;28;20131;-79
2023/01/03 09:05:12;;;;;;;5.60;3.60;;;;;;;;;;5053567;28;20132;-77
2023/01/03 09:07:39;;;;;;;6.70;3.20;;;;;;;;;;5054637;28;20494;-79
2023/01/03 09:10:06;;;;;;;6.68;3.28;;;;;;;;;;5054043;28;20480;-77
2023/01/03 09:12:33;;;;;;;5.22;2.75;;;;;;;;;;5052178;28;20496;-76
2023/01/03 09:15:03;;;;;;;6.90;3.58;;;;;;;;;;5053134;28;20045;-77
2023/01/03 09:17:30;;;;;;;4.97;2.92;;;;;;;;;;5052772;28;20124;-77
2023/01/03 09:19:56;;;;;;;5.95;3.33;;;;;;;;;;5055123;28;20088;-84
2023/01/03 09:22:24;;;;;;;6.35;3.40;;;;;;;;;;5054605;28;20059;-81
2023/01/03 09:24:51;;;;;;;7.60;3.90;;;;;;;;;;5055942;28;20127;-79
2023/01/03 09:27:18;;;;;;;5.93;3.40;;;;;;;;;;5056503;28;20136;-80
2023/01/03 09:29:44;;;;;;;7.65;3.28;;;;;;;;;;5053738;28;20049;-80
2023/01/03 09:32:11;;;;;;;6.35;3.30;;;;;;;;;;5055445;28;20052;-84
2023/01/03 09:34:38;;;;;;;7.28;3.60;;;;;;;;;;5057766;28;20130;-81
2023/01/03 09:37:04;;;;;;;7.72;4.07;;;;;;;;;;5054630;28;20077;-81
2023/01/03 09:39:33;;;;;;;8.60;4.03;;;;;;;;;;5053619;28;20045;-78
2023/01/03 09:44:46;;;;;;;5.63;3.40;;;;;;;;;;5053638;28;20768;-79
2023/01/03 09:47:21;;;;;;;5.97;3.38;;;;;;;;;;5054277;28;20049;-78
2023/01/03 09:49:48;;;;;;;7.20;3.92;;;;;;;;;;5058051;28;20056;-80
2023/01/03 10:04:00;;;;;;;6.63;4.03;;;;;;;;;;5034708;28;20424;-80
2023/01/03 10:06:39;;;;;;;7.75;3.72;;;;;;;;;;5034418;28;20045;-80
2023/01/03 10:09:18;;;;;;;6.25;3.70;;;;;;;;;;5034945;28;20053;-78
2023/01/03 10:11:54;;;;;;;7.28;3.78;;;;;;;;;;5040561;28;20057;-78
2023/01/03 10:14:34;;;;;;;6.30;3.55;;;;;;;;;;5048872;28;20043;-79
2023/01/03 10:17:11;;;;;;;7.93;4.47;;;;;;;;;;5044427;28;20106;-80
2023/01/03 10:20:15;;;;;;;7.25;3.78;;;;;;;;;;5056044;28;20393;-80
2023/01/03 10:22:42;;;;;;;6.13;3.30;;;;;;;;;;5018245;28;20049;-78
2023/01/03 10:25:12;;;;;;;6.90;3.75;;;;;;;;;;5058947;28;20099;-78
2023/01/03 10:27:45;;;;;;;7.32;4.20;;;;;;;;;;5049115;28;20571;-79
2023/01/03 10:30:16;;;;;;;7.50;4.35;;;;;;;;;;5048965;28;20044;-78
2023/01/03 10:33:02;;;;;;;6.93;3.80;;;;;;;;;;5045101;28;20445;-78
2023/01/03 10:35:30;;;;;;;7.40;4.28;;;;;;;;;;5041243;28;20133;-79
2023/01/03 10:37:58;;;;;;;9.43;4.45;;;;;;;;;;5053734;28;20080;-79
2023/01/03 10:40:34;;;;;;;9.40;4.88;;;;;;;;;;5054291;28;20086;-78
2023/01/03 10:43:15;;;;;;;7.85;4.35;;;;;;;;;;5053262;28;20041;-79
2023/01/03 10:45:55;;;;;;;;;;;;;;;;;;5050961;28;20080;-78
2023/01/03 10:48:21;;;;;;;7.38;4.40;;;;;;;;;;5052795;28;20003;-80
2023/01/03 10:50:49;;;;;;;8.25;4.65;;;;;;;;;;5053539;28;20144;-79
2023/01/03 10:53:19;;;;;;;7.72;4.65;;;;;;;;;;5063584;28;20076;-77
2023/01/03 10:55:49;;;;;;;11.50;5.13;;;;;;;;;;5059535;28;20041;-79
2023/01/03 10:58:21;;;;;;;8.48;5.07;;;;;;;;;;5041398;28;20045;-78
2023/01/03 11:00:48;;;;;;;8.45;4.97;;;;;;;;;;5048978;28;20083;-78
2023/01/03 11:03:17;;;;;;;8.30;5.15;;;;;;;;;;5054089;28;20436;-80
2023/01/03 11:05:49;;;;;;;7.22;4.55;;;;;;;;;;5054239;28;20072;-79
2023/01/03 11:08:21;;;;;;;9.48;5.30;;;;;;;;;;5053271;28;20041;-79
2023/01/03 11:10:54;;;;;;;8.93;4.90;;;;;;;;;;5044073;28;20045;-79
2023/01/03 11:13:29;;;;;;;8.48;4.93;;;;;;;;;;5054896;28;20131;-79
2023/01/03 11:15:57;;;;;;;7.63;4.07;;;;;;;;;;5054448;28;20096;-80
2023/01/03 11:18:27;;;;;;;7.82;4.10;;;;;;;;;;5041222;28;20045;-79
2023/01/03 11:21:06;;;;;;;7.20;3.65;;;;;;;;;;5054506;28;20053;-78
2023/01/03 11:23:50;;;;;;;8.07;4.22;;;;;;;;;;5056938;28;20049;-80
2023/01/03 11:26:25;;;;;;;8.35;4.47;;;;;;;;;;5061477;28;20056;-78
2023/01/03 11:29:23;;;;;;;8.13;4.13;;;;;;;;;;5062314;28;20087;-80
2023/01/03 11:31:55;;;;;;;7.28;4.10;;;;;;;;;;5075301;22;20055;-81
2023/01/03 11:34:41;;;;;;;7.20;3.53;;;;;;;;;;5074579;28;20455;-82
2023/01/03 11:37:18;;;;;;;8.82;4.20;;;;;;;;;;5061428;28;20078;-83
2023/01/03 11:39:59;;;;;;;7.85;3.88;;;;;;;;;;5070841;28;20075;-82
2023/01/03 11:42:36;;;;;;;8.25;3.95;;;;;;;;;;5056354;28;20044;-82
2023/01/03 11:45:35;;;;;;;6.43;3.00;;;;;;;;;;5055711;28;20041;-83
2023/01/03 11:48:18;;;;;;;7.63;2.67;;;;;;;;;;5056154;28;20053;-83
2023/01/03 11:50:53;;;;;;;4.97;2.80;;;;;;;;;;5056228;28;20083;-83
2023/01/03 11:53:32;;;;;;;5.57;2.60;;;;;;;;;;5057688;28;20714;-82
2023/01/03 11:56:19;;;;;;;5.47;2.67;;;;;;;;;;5060174;28;20045;-82
2023/01/03 11:59:08;;;;;;;5.60;2.40;;;;;;;;;;5060479;28;20064;-82
2023/01/03 12:01:51;;;;;;;6.43;2.90;;;;;;;;;;5059707;28;20136;-82
2023/01/03 12:04:28;;;;;;;7.05;3.65;;;;;;;;;;5058967;28;20127;-81
2023/01/03 12:07:13;;;;;;;6.85;3.25;;;;;;;;;;5059305;28;20484;-82
2023/01/03 12:09:50;;;;;;;6.63;3.55;;;;;;;;;;5075772;28;20225;-81
2023/01/03 12:12:41;;;;;;;6.18;3.22;;;;;;;;;;5077825;28;20059;-83
2023/01/03 12:15:17;;;;;;;7.35;3.90;;;;;;;;;;5061635;28;20084;-84
2023/01/03 12:17:51;;;;;;;5.82;3.22;;;;;;;;;;5060046;28;20077;-83
2023/01/03 12:20:22;;;;;;;7.70;4.18;;;;;;;;;;5059834;28;20037;-82
2023/01/03 12:22:54;;;;;;;5.93;3.58;;;;;;;;;;5059212;28;20081;-82
2023/01/03 12:25:24;;;;;;;7.22;3.67;;;;;;;;;;5059560;28;20109;-82
2023/01/03 12:27:54;;;;;;;7.10;3.72;;;;;;;;;;5058400;28;20114;-82
2023/01/03 12:30:33;;;;;;;6.80;4.30;;;;;;;;;;5060835;28;20044;-81
2023/01/03 12:33:13;;;;;;;6.85;3.72;;;;;;;;;;5065046;28;20052;-82
2023/01/03 12:35:47;;;;;;;5.57;2.92;;;;;;;;;;5078900;28;20049;-81
2023/01/03 12:38:18;;;;;;;7.35;4.32;;;;;;;;;;5061639;28;20063;-83
2023/01/03 12:40:50;;;;;;;8.13;5.10;;;;;;;;;;5058373;28;20052;-82
2023/01/03 12:43:26;;;;;;;8.60;4.32;;;;;;;;;;5057864;28;20144;-81
2023/01/03 12:46:00;;;;;;;7.18;3.92;;;;;;;;;;5058403;28;20132;-83
2023/01/03 12:48:54;;;;;;;6.65;4.07;;;;;;;;;;5058455;28;20080;-82
2023/01/03 12:51:23;;;;;;;6.65;4.43;;;;;;;;;;5058547;28;20076;-81
2023/01/03 12:54:00;;;;;;;6.35;4.00;;;;;;;;;;5056915;28;20531;-82
2023/01/03 12:56:52;;;;;;;7.43;3.97;;;;;;;;;;5058493;28;20098;-83
2023/01/03 12:59:37;;;;;;;6.85;4.10;;;;;;;;;;5058271;28;20087;-82
2023/01/03 13:02:20;;;;;;;5.88;3.60;;;;;;;;;;5058537;28;20055;-82
2023/01/03 13:04:52;;;;;;;6.03;3.47;;;;;;;;;;5056316;28;20045;-81
2023/01/03 13:07:25;;;;;;;6.15;3.35;;;;;;;;;;5054365;28;20545;-80
2023/01/03 13:09:55;;;;;;;5.95;3.75;;;;;;;;;;5047396;28;20584;-82
2023/01/03 13:12:26;;;;;;;7.68;3.50;;;;;;;;;;5057268;28;20053;-83
2023/01/03 13:14:55;;;;;;;7.25;3.90;;;;;;;;;;5054431;28;20471;-80
2023/01/03 13:17:24;;;;;;;7.35;3.60;;;;;;;;;;5054063;28;20041;-82
2023/01/03 13:19:59;;;;;;;8.90;3.80;;;;;;;;;;5043997;28;20582;-81
2023/01/03 13:22:53;;;;;;;7.45;3.58;;;;;;;;;;5050704;28;20158;-81
2023/01/03 13:25:38;;;;;;;6.75;3.97;;;;;;;;;;5037356;28;20087;-81
2023/01/03 13:28:31;;;;;;;6.47;3.35;;;;;;;;;;5043045;28;20045;-80
2023/01/03 13:31:44;;;;;;;6.10;3.55;;;;;;;;;;5056873;28;20041;-82
2023/01/03 13:34:29;;;;;;;8.05;3.67;;;;;;;;;;5055831;28;20080;-82
2023/01/03 13:37:19;;;;;;;8.32;3.67;;;;;;;;;;5054714;28;20430;-84
2023/01/03 13:40:03;;;;;;;7.05;3.63;;;;;;;;;;5059459;28;20049;-85
2023/01/03 13:42:36;;;;;;;5.57;3.15;;;;;;;;;;5058046;28;20076;-86
2023/01/03 13:45:47;;;;;;;5.88;3.13;;;;;;;;;;5064663;28;20084;-85
2023/01/03 13:48:21;;;;;;;6.32;3.30;;;;;;;;;;4968767;28;20054;-84
2023/01/03 13:51:32;;;;;;;5.85;3.20;;;;;;;;;;5039085;28;20048;-87
2023/01/03 13:54:46;;;;;;;7.03;3.25;;;;;;;;;;5038718;28;20465;-86
2023/01/03 13:57:52;;;;;;;5.80;3.20;;;;;;;;;;5043423;28;20068;-86
2023/01/03 14:00:33;;;;;;;6.00;2.83;;;;;;;;;;5042723;28;20570;-88
2023/01/03 14:03:39;;;;;;;6.43;3.33;;;;;;;;;;5045986;28;20514;-85
2023/01/03 14:06:27;;;;;;;6.22;2.97;;;;;;;;;;5035256;28;20128;-80
2023/01/03 14:09:35;;;;;;;6.57;3.20;;;;;;;;;;5035298;28;20061;-81
2023/01/03 14:12:32;;;;;;;6.60;3.42;;;;;;;;;;5041857;28;20064;-84
2023/01/03 14:14:59;;;;;;;7.95;3.20;;;;;;;;;;5056783;28;20124;-81
2023/01/03 14:17:30;;;;;;;7.72;3.40;;;;;;;;;;5056572;28;20041;-82
2023/01/03 14:19:59;;;;;;;;;;;;;;;;;;5058249;28;20064;-81
2023/01/03 14:22:35;;;;;;;5.50;3.08;;;;;;;;;;5057107;28;19959;-88
2023/01/03 14:25:06;;;;;;;6.75;3.38;;;;;;;;;;5055886;28;20133;-81
2023/01/03 14:27:39;;;;;;;4.93;3.08;;;;;;;;;;5054924;28;20067;-81
2023/01/03 14:30:20;;;;;;;6.90;3.70;;;;;;;;;;5054989;28;20049;-81
2023/01/03 14:32:47;;;;;;;7.20;3.00;;;;;;;;;;5052465;28;20564;-81
2023/01/03 14:35:32;;;;;;;5.63;2.95;;;;;;;;;;5055657;28;20124;-80
2023/01/03 14:37:59;;;;;;;5.47;3.15;;;;;;;;;;5055358;28;20099;-81
2023/01/03 14:40:27;;;;;;;7.03;3.78;;;;;;;;;;5055176;28;20103;-82
2023/01/03 14:42:54;;;;;;;5.82;3.38;;;;;;;;;;5055508;28;20109;-82
2023/01/03 14:45:21;;;;;;;7.65;3.22;;;;;;;;;;5043317;28;20072;-81
2023/01/03 14:47:51;;;;;;;5.28;2.40;;;;;;;;;;5044891;28;20494;-81
2023/01/03 14:50:27;;;;;;;5.82;2.70;;;;;;;;;;5055111;28;20090;-81
2023/01/03 14:52:56;;;;;;;6.07;2.83;;;;;;;;;;5055009;28;20140;-80
2023/01/03 14:55:31;;;;;;;6.15;3.40;;;;;;;;;;5056170;28;20084;-81
2023/01/03 14:57:59;;;;;;;6.07;3.47;;;;;;;;;;5050927;28;20046;-81
2023/01/03 15:00:29;;;;;;;8.45;5.03;;;;;;;;;;5039702;28;20069;-82
2023/01/03 15:02:57;;;;;;;6.85;4.63;;;;;;;;;;5072409;28;20067;-81
2023/01/03 15:05:28;;;;;;;8.02;4.68;;;;;;;;;;5067241;28;20040;-81
2023/01/03 15:08:07;;;;;;;8.32;4.93;;;;;;;;;;5047405;28;20056;-82
2023/01/03 15:10:47;;;;;;;9.00;4.97;;;;;;;;;;5072623;28;20044;-82
2023/01/03 15:13:20;;;;;;;7.70;4.60;;;;;;;;;;5073531;28;20178;-81
2023/01/03 15:15:55;;;;;;;8.93;4.47;;;;;;;;;;5073748;28;20051;-80
2023/01/03 15:18:24;;;;;;;7.35;4.50;;;;;;;;;;5076651;28;20045;-82
2023/01/03 15:20:53;;;;;;;8.10;5.05;;;;;;;;;;5073076;28;20045;-79
2023/01/03 15:23:37;;;;;;;9.07;5.18;;;;;;;;;;5059430;28;20470;-79
2023/01/03 15:26:06;;;;;;;7.78;4.18;;;;;;;;;;5053869;28;20515;-79
2023/01/03 15:28:37;;;;;;;10.50;4.60;;;;;;;;;;5053342;28;20047;-80
2023/01/03 15:31:21;;;;;;;8.00;5.13;;;;;;;;;;5047473;28;20084;-80
2023/01/03 15:33:59;;;;;;;7.85;4.70;;;;;;;;;;5033406;28;20041;-80
2023/01/03 15:36:28;;;;;;;7.22;4.60;;;;;;;;;;5038945;28;20053;-80
2023/01/03 15:38:55;;;;;;;8.48;4.65;;;;;;;;;;5053836;28;20075;-80
2023/01/03 15:44:13;;;;;;;8.20;4.63;;;;;;;;;;5054012;28;20059;-80
2023/01/03 15:46:44;;;;;;;8.07;4.70;;;;;;;;;;5053065;28;20659;-80
2023/01/03 15:49:14;;;;;;;8.43;5.20;;;;;;;;;;5053801;28;20075;-80
2023/01/03 15:51:41;;;;;;;9.68;5.32;;;;;;;;;;5048995;28;20041;-80
2023/01/03 15:54:12;;;;;;;7.05;4.50;;;;;;;;;;5033460;28;20050;-80
2023/01/03 15:56:46;;;;;;;9.90;5.70;;;;;;;;;;5034735;28;20049;-80
2023/01/03 15:59:16;;;;;;;10.32;5.35;;;;;;;;;;5034897;28;20041;-80
2023/01/03 16:01:42;;;;;;;9.63;5.57;;;;;;;;;;5058174;28;20045;-80
2023/01/03 16:04:10;;;;;;;10.27;6.00;;;;;;;;;;5054242;28;20059;-80
2023/01/03 16:06:36;;;;;;;9.50;5.43;;;;;;;;;;5054530;28;20322;-79
2023/01/03 16:09:03;;;;;;;10.80;6.07;;;;;;;;;;5053641;28;20127;-80
2023/01/03 16:11:30;;;;;;;10.00;6.05;;;;;;;;;;5053751;28;20071;-79